Overview Statistics Trail Chart Weather Telemetry Raw packets
 

This is the latest recevied weather packets stored in our database for station/object OK2ZA-6. If no packets are shown the sender has not sent any weather packets the latest 10 day(s).

<< 40 41 42 43 44 45 46 >>
Time Temp. Humidity Pressure Rain* Wind** Luminosity Snow
1788090604 26.11° C 47% 1016.3 hPa 0 mm - - -
1788090004 26.67° C 46% 1016.3 hPa 0 mm - - -
1788089404 26.11° C 46% 1016.2 hPa 0 mm - - -
1788088804 25.56° C 48% 1016.4 hPa 0 mm - - -
1788088204 25.56° C 47% 1016.5 hPa 0 mm - - -
1788087604 25.56° C 47% 1016.6 hPa 0 mm - - -
1788087004 25.56° C 48% 1016.6 hPa 0 mm - - -
1788086405 25.56° C 49% 1016.8 hPa 0 mm - - -
1788085804 24.44° C 54% 1016.9 hPa 0 mm - - -
1788085205 24.44° C 50% 1016.9 hPa 0 mm - - -
1788084604 23.89° C 53% 1017.1 hPa 0 mm - - -
1788084004 24.44° C 52% 1017.2 hPa 0 mm - - -
1788083404 24.44° C 53% 1017 hPa 0 mm - - -
1788082804 24.44° C 53% 1017.1 hPa 0 mm - - -
1788082204 23.89° C 53% 1017.3 hPa 0 mm - - -
1788081613 23.89° C 54% 1017.4 hPa 0 mm - - -
1788081004 23.33° C 53% 1017.5 hPa 0 mm - - -
1788080404 23.33° C 54% 1017.5 hPa 0 mm - - -
1788079804 23.33° C 56% 1017.6 hPa 0 mm - - -
1788079204 22.78° C 58% 1017.6 hPa 0 mm - - -
1788078604 22.22° C 59% 1017.7 hPa 0 mm - - -
1788078004 22.22° C 59% 1017.8 hPa 0 mm - - -
1788077404 21.67° C 59% 1017.8 hPa 0 mm - - -
1788076804 21.11° C 63% 1017.7 hPa 0 mm - - -
1788076204 20° C 66% 1017.6 hPa 0 mm - - -

* Rain latest hour (hover to see other rain measurements)
** Current wind speed in m/s (hover to see current wind gust speed)